createdAt,value
2023-04-05T00:01:25.639Z,3.03
2023-04-05T00:03:55.061Z,3.43
2023-04-05T00:06:26.637Z,3.77
2023-04-05T00:08:56.121Z,4.33
2023-04-05T00:11:24.349Z,3.47
2023-04-05T00:13:54.282Z,4.90
2023-04-05T00:16:23.325Z,3.23
2023-04-05T00:18:52.120Z,3.37
2023-04-05T00:21:22.578Z,4.30
2023-04-05T00:23:52.034Z,4.30
2023-04-05T00:26:21.345Z,3.07
2023-04-05T00:28:49.857Z,3.77
2023-04-05T00:31:20.636Z,3.27
2023-04-05T00:33:48.899Z,3.00
2023-04-05T00:36:19.681Z,2.97
2023-04-05T00:38:49.778Z,3.03
2023-04-05T00:41:18.515Z,3.53
2023-04-05T00:43:46.756Z,4.33
2023-04-05T00:46:15.446Z,2.90
2023-04-05T00:48:46.054Z,3.30
2023-04-05T00:51:14.146Z,3.90
2023-04-05T00:53:43.596Z,3.20
2023-04-05T00:56:13.548Z,4.13
2023-04-05T00:58:43.059Z,4.57
2023-04-05T01:01:16.591Z,3.83
2023-04-05T01:03:50.054Z,3.20
2023-04-05T01:06:27.993Z,3.70
2023-04-05T01:09:04.677Z,3.90
2023-04-05T01:11:35.168Z,3.93
2023-04-05T01:14:04.374Z,3.83
2023-04-05T01:16:32.471Z,6.27
2023-04-05T01:19:02.502Z,3.53
2023-04-05T01:21:58.343Z,2.97
2023-04-05T01:24:41.286Z,3.13
2023-04-05T01:27:13.121Z,3.40
2023-04-05T01:30:04.952Z,3.83
2023-04-05T01:32:51.009Z,3.47
2023-04-05T01:35:24.180Z,3.57
2023-04-05T01:37:58.541Z,3.97
2023-04-05T01:40:27.616Z,3.03
2023-04-05T01:42:55.857Z,3.57
2023-04-05T01:45:25.826Z,4.20
2023-04-05T01:47:53.961Z,2.97
2023-04-05T01:50:22.700Z,4.00
2023-04-05T01:52:50.797Z,3.43
2023-04-05T01:55:19.340Z,3.13
2023-04-05T01:57:47.442Z,4.80
2023-04-05T02:00:16.160Z,3.90
2023-04-05T02:02:46.216Z,2.83
2023-04-05T02:05:14.589Z,2.70
2023-04-05T02:07:43.156Z,3.13
2023-04-05T02:10:11.434Z,3.30
2023-04-05T02:12:40.099Z,3.67
2023-04-05T02:15:09.707Z,4.10
2023-04-05T02:17:40.239Z,4.53
2023-04-05T02:20:12.475Z,4.03
2023-04-05T02:22:41.459Z,4.33
2023-04-05T02:25:10.177Z,3.27
2023-04-05T02:27:38.763Z,5.30
2023-04-05T02:30:08.198Z,3.93
2023-04-05T02:32:36.751Z,4.47
2023-04-05T02:35:05.220Z,3.33
2023-04-05T02:37:35.131Z,3.77
2023-04-05T02:40:05.370Z,4.10
2023-04-05T02:42:33.941Z,4.53
2023-04-05T02:45:02.251Z,4.20
2023-04-05T02:47:30.881Z,4.20
2023-04-05T02:49:58.992Z,4.10
2023-04-05T02:52:27.490Z,4.07
2023-04-05T02:54:57.396Z,3.67
2023-04-05T02:57:26.405Z,4.53
2023-04-05T02:59:55.085Z,3.80
2023-04-05T03:02:23.194Z,4.40
2023-04-05T03:04:53.890Z,4.27
2023-04-05T03:07:22.601Z,3.70
2023-04-05T03:09:51.404Z,4.53
2023-04-05T03:12:20.939Z,4.93
2023-04-05T03:14:49.048Z,4.80
2023-04-05T03:17:17.658Z,4.93
2023-04-05T03:19:46.651Z,4.03
2023-04-05T03:22:15.177Z,3.93
2023-04-05T03:24:43.639Z,4.13
2023-04-05T03:27:11.675Z,5.07
2023-04-05T03:29:41.599Z,4.57
2023-04-05T03:32:11.950Z,3.40
2023-04-05T03:34:40.508Z,3.60
2023-04-05T03:37:09.049Z,3.73
2023-04-05T03:39:38.067Z,4.80
2023-04-05T03:42:06.701Z,4.13
2023-04-05T03:44:34.784Z,3.57
2023-04-05T03:47:04.786Z,5.40
2023-04-05T03:49:32.850Z,3.67
2023-04-05T03:52:01.365Z,4.10
2023-04-05T03:54:29.875Z,3.80
2023-04-05T03:56:58.187Z,4.03
2023-04-05T03:59:27.124Z,3.53
2023-04-05T04:01:55.982Z,3.70
2023-04-05T04:04:26.155Z,5.13
2023-04-05T04:06:55.460Z,4.50
2023-04-05T04:09:24.540Z,4.43
2023-04-05T04:11:53.126Z,6.60
2023-04-05T04:14:21.658Z,4.23
2023-04-05T04:16:49.863Z,4.03
2023-04-05T04:19:19.062Z,4.03
2023-04-05T04:21:52.118Z,4.13
2023-04-05T04:24:20.632Z,5.87
2023-04-05T04:26:49.846Z,4.57
2023-04-05T04:29:18.371Z,3.60
2023-04-05T04:31:48.545Z,3.77
2023-04-05T04:34:19.153Z,3.80
2023-04-05T04:37:00.621Z,3.20
2023-04-05T04:39:31.472Z,4.30
2023-04-05T04:42:01.401Z,3.83
2023-04-05T04:44:31.832Z,3.73
2023-04-05T04:46:59.935Z,3.40
2023-04-05T04:49:28.971Z,3.83
2023-04-05T04:52:00.087Z,6.07
2023-04-05T04:54:29.390Z,5.07
2023-04-05T04:56:58.344Z,5.47
2023-04-05T04:59:26.537Z,5.47
2023-04-05T05:01:55.214Z,4.90
2023-04-05T05:04:23.607Z,3.57
2023-04-05T05:06:54.653Z,3.87
2023-04-05T05:09:24.597Z,6.07
2023-04-05T05:11:52.691Z,5.43
2023-04-05T05:14:21.666Z,4.40
2023-04-05T05:16:50.242Z,4.50
2023-04-05T05:19:18.413Z,3.90
2023-04-05T05:21:47.581Z,4.40
2023-04-05T05:24:16.113Z,5.03
2023-04-05T05:26:46.003Z,4.77
2023-04-05T05:29:14.038Z,4.37
2023-04-05T05:31:42.583Z,4.20
2023-04-05T05:34:10.726Z,3.87
2023-04-05T05:36:39.256Z,4.40
2023-04-05T05:39:08.489Z,4.33
2023-04-05T05:41:36.577Z,5.80
2023-04-05T05:44:06.627Z,14.20
2023-04-05T05:46:35.333Z,19.40
2023-04-05T05:49:03.558Z,36.43
2023-04-05T05:51:32.391Z,73.87
2023-04-05T05:54:01.113Z,71.93
2023-04-05T05:56:29.226Z,61.37
2023-04-05T05:58:59.927Z,45.97
2023-04-05T06:01:29.484Z,44.03
2023-04-05T06:03:57.604Z,42.67
2023-04-05T06:06:26.962Z,38.77
2023-04-05T06:08:55.449Z,30.13
2023-04-05T06:11:25.770Z,23.90
2023-04-05T06:13:55.081Z,19.30
2023-04-05T06:16:23.808Z,19.47
2023-04-05T06:18:55.546Z,15.27
2023-04-05T06:21:23.707Z,14.90
2023-04-05T06:23:51.758Z,13.03
2023-04-05T06:26:21.068Z,9.27
2023-04-05T06:28:49.148Z,6.03
2023-04-05T06:31:18.821Z,5.33
2023-04-05T06:33:46.877Z,5.73
2023-04-05T06:36:16.908Z,5.23
2023-04-05T06:38:45.448Z,5.30
2023-04-05T06:41:13.599Z,5.93
2023-04-05T06:43:41.854Z,4.90
2023-04-05T06:46:12.131Z,6.53
2023-04-05T06:48:40.804Z,6.40
2023-04-05T06:51:08.925Z,5.37
2023-04-05T06:53:38.847Z,5.43
2023-04-05T06:56:07.506Z,8.63
2023-04-05T06:58:36.134Z,3.90
2023-04-05T07:01:04.807Z,4.57
2023-04-05T07:03:34.016Z,5.00
2023-04-05T07:06:03.424Z,4.93
2023-04-05T07:08:34.114Z,4.63
2023-04-05T07:11:04.181Z,7.37
2023-04-05T07:13:33.673Z,5.37
2023-04-05T07:16:02.728Z,6.17
2023-04-05T07:18:31.506Z,5.63
2023-04-05T07:21:04.844Z,5.07
2023-04-05T07:23:33.407Z,5.37
2023-04-05T07:26:06.161Z,5.60
2023-04-05T07:28:36.204Z,4.80
2023-04-05T07:31:04.608Z,4.80
2023-04-05T07:33:32.883Z,4.50
2023-04-05T07:36:01.690Z,5.37
2023-04-05T07:38:31.354Z,4.43
2023-04-05T07:40:59.456Z,7.07
2023-04-05T07:43:29.364Z,7.27
2023-04-05T07:46:03.639Z,7.07
2023-04-05T07:48:31.994Z,5.23
2023-04-05T07:51:05.661Z,4.10
2023-04-05T07:53:33.826Z,5.67
2023-04-05T07:56:05.294Z,4.53
2023-04-05T07:58:35.826Z,5.47
2023-04-05T08:01:05.683Z,8.43
2023-04-05T08:03:35.164Z,4.80
2023-04-05T08:06:11.937Z,6.27
2023-04-05T08:08:40.461Z,5.13
2023-04-05T08:11:09.065Z,4.47
2023-04-05T08:13:41.017Z,4.33
2023-04-05T08:16:09.617Z,4.97
2023-04-05T08:18:38.470Z,4.47
2023-04-05T08:21:06.835Z,4.67
2023-04-05T08:23:35.486Z,4.70
2023-04-05T08:26:03.684Z,4.27
2023-04-05T08:28:32.356Z,4.60
2023-04-05T08:31:01.963Z,4.43
2023-04-05T08:33:31.521Z,4.93
2023-04-05T08:36:04.612Z,4.90
2023-04-05T08:38:33.169Z,5.37
2023-04-05T08:41:09.135Z,3.97
2023-04-05T08:43:57.706Z,5.00
2023-04-05T08:46:27.446Z,5.93
2023-04-05T08:48:56.816Z,3.87
2023-04-05T08:51:26.155Z,4.67
2023-04-05T08:53:55.624Z,6.27
2023-04-05T08:56:27.315Z,3.90
2023-04-05T08:59:03.395Z,3.53
2023-04-05T09:01:34.899Z,3.90
2023-04-05T09:04:08.609Z,5.90
2023-04-05T09:06:38.193Z,3.90
2023-04-05T09:09:09.110Z,5.20
2023-04-05T09:11:37.782Z,3.73
2023-04-05T09:14:06.162Z,5.23
2023-04-05T09:16:39.473Z,4.43
2023-04-05T09:19:07.796Z,3.73
2023-04-05T09:22:01.112Z,4.03
2023-04-05T09:24:34.858Z,3.87
2023-04-05T09:27:06.878Z,4.03
2023-04-05T09:29:35.010Z,4.80
2023-04-05T09:32:05.866Z,4.07
2023-04-05T09:34:34.091Z,4.00
2023-04-05T09:37:02.834Z,3.43
2023-04-05T09:39:32.930Z,4.20
2023-04-05T09:42:07.867Z,4.43
2023-04-05T09:44:53.614Z,6.00
2023-04-05T09:47:25.053Z,6.57
2023-04-05T09:49:53.736Z,4.03
2023-04-05T09:52:23.345Z,4.60
2023-04-05T09:54:53.449Z,4.17
2023-04-05T09:57:21.503Z,3.63
2023-04-05T09:59:49.717Z,3.20
2023-04-05T10:02:18.029Z,3.30
2023-04-05T10:04:48.918Z,3.60
2023-04-05T10:07:18.683Z,3.77
2023-04-05T10:09:50.145Z,3.90
2023-04-05T10:12:26.577Z,3.67
2023-04-05T10:14:54.821Z,3.10
2023-04-05T10:17:26.439Z,3.73
2023-04-05T10:20:06.677Z,3.40
2023-04-05T10:22:41.074Z,5.80
2023-04-05T10:25:21.914Z,3.80
2023-04-05T10:27:55.940Z,4.17
2023-04-05T10:30:26.789Z,3.83
2023-04-05T10:33:08.472Z,4.57
2023-04-05T10:35:51.399Z,3.53
2023-04-05T10:38:24.582Z,5.67
2023-04-05T10:40:55.815Z,4.17
2023-04-05T10:43:27.290Z,4.43
2023-04-05T10:45:56.973Z,5.40
2023-04-05T10:48:38.286Z,5.33
2023-04-05T10:51:08.508Z,4.45
2023-04-05T10:53:39.055Z,4.63
2023-04-05T10:56:07.716Z,4.30
2023-04-05T10:58:37.934Z,5.50
2023-04-05T11:01:07.307Z,3.83
2023-04-05T11:03:49.315Z,3.80
2023-04-05T11:06:24.664Z,4.43
2023-04-05T11:08:56.856Z,3.08
2023-04-05T11:11:27.717Z,2.90
2023-04-05T11:13:58.371Z,4.72
2023-04-05T11:16:40.872Z,3.40
2023-04-05T11:19:09.519Z,3.47
2023-04-05T11:21:39.063Z,3.15
2023-04-05T11:24:10.109Z,5.90
2023-04-05T11:26:58.747Z,3.17
2023-04-05T11:29:49.584Z,2.88
2023-04-05T11:32:17.881Z,2.70
2023-04-05T11:34:58.653Z,2.85
2023-04-05T11:38:06.616Z,4.57
2023-04-05T11:40:36.673Z,3.20
2023-04-05T11:43:08.057Z,2.67
2023-04-05T11:45:37.663Z,3.17
2023-04-05T11:48:10.907Z,3.05
2023-04-05T11:50:42.468Z,2.80
2023-04-05T11:53:16.704Z,5.28
2023-04-05T11:55:46.218Z,3.00
2023-04-05T11:58:16.478Z,2.65
2023-04-05T12:00:46.541Z,3.13
2023-04-05T12:03:16.100Z,3.60
2023-04-05T12:05:51.612Z,3.50
2023-04-05T12:08:22.643Z,2.88
2023-04-05T12:10:57.479Z,3.33
2023-04-05T12:13:30.632Z,2.78
2023-04-05T12:16:04.030Z,3.05
2023-04-05T12:18:33.707Z,4.03
2023-04-05T12:21:06.454Z,2.85
2023-04-05T12:23:38.305Z,2.65
2023-04-05T12:26:09.270Z,2.47
2023-04-05T12:28:53.736Z,2.50
2023-04-05T12:31:40.237Z,2.70
2023-04-05T12:34:09.643Z,2.88
2023-04-05T12:36:39.411Z,3.40
2023-04-05T12:39:10.303Z,4.72
2023-04-05T12:41:38.949Z,3.35
2023-04-05T12:44:12.921Z,2.60
2023-04-05T12:46:41.595Z,2.55
2023-04-05T12:49:13.177Z,2.85
2023-04-05T12:51:44.088Z,3.28
2023-04-05T12:54:15.792Z,2.55
2023-04-05T12:56:43.972Z,3.97
2023-04-05T12:59:13.047Z,2.80
2023-04-05T13:01:41.263Z,3.00
2023-04-05T13:04:16.236Z,2.72
2023-04-05T13:06:47.919Z,2.72
2023-04-05T13:09:18.028Z,3.28
2023-04-05T13:11:46.669Z,3.30
2023-04-05T13:14:15.082Z,3.03
2023-04-05T13:16:43.634Z,2.70
2023-04-05T13:19:11.729Z,2.60
2023-04-05T13:21:40.324Z,3.20
2023-04-05T13:24:11.562Z,3.03
2023-04-05T13:26:42.778Z,3.97
2023-04-05T13:29:10.919Z,2.88
2023-04-05T13:31:41.363Z,2.58
2023-04-05T13:34:09.750Z,2.92
2023-04-05T13:36:38.353Z,2.85
2023-04-05T13:39:06.880Z,3.13
2023-04-05T13:41:34.957Z,3.40
2023-04-05T13:44:06.623Z,2.42
2023-04-05T13:46:35.571Z,3.03
2023-04-05T13:49:04.259Z,3.50
2023-04-05T13:51:34.372Z,3.13
2023-04-05T13:54:03.121Z,3.53
2023-04-05T13:56:31.687Z,2.63
2023-04-05T13:58:59.896Z,3.95
2023-04-05T14:01:29.957Z,3.30
2023-04-05T14:03:58.192Z,2.85
2023-04-05T14:06:27.734Z,2.80
2023-04-05T14:08:55.985Z,3.33
2023-04-05T14:11:24.821Z,2.97
2023-04-05T14:13:52.862Z,4.03
2023-04-05T14:16:20.968Z,2.65
2023-04-05T14:18:51.148Z,3.35
2023-04-05T14:21:19.726Z,2.65
2023-04-05T14:23:50.902Z,4.05
2023-04-05T14:26:18.930Z,3.28
2023-04-05T14:28:47.479Z,2.78
2023-04-05T14:31:15.594Z,2.50
2023-04-05T14:33:44.149Z,2.92
2023-04-05T14:36:14.070Z,3.13
2023-04-05T14:38:42.607Z,2.72
2023-04-05T14:41:10.703Z,3.25
2023-04-05T14:43:39.783Z,3.45
2023-04-05T14:46:08.021Z,3.35
2023-04-05T14:48:37.901Z,4.03
2023-04-05T14:51:06.549Z,3.28
2023-04-05T14:53:36.471Z,3.42
2023-04-05T14:56:04.917Z,4.00
2023-04-05T14:58:34.564Z,4.07
2023-04-05T15:01:02.710Z,2.70
2023-04-05T15:03:31.611Z,3.13
2023-04-05T15:06:00.307Z,2.70
2023-04-05T15:08:28.424Z,2.63
2023-04-05T15:10:58.629Z,2.78
2023-04-05T15:13:27.537Z,3.30
2023-04-05T15:15:55.665Z,3.05
2023-04-05T15:18:24.176Z,2.85
2023-04-05T15:20:53.840Z,2.33
2023-04-05T15:23:22.556Z,3.53
2023-04-05T15:25:50.657Z,3.28
2023-04-05T15:28:20.595Z,2.90
2023-04-05T15:30:49.121Z,2.67
2023-04-05T15:33:18.546Z,2.70
2023-04-05T15:35:46.649Z,2.67
2023-04-05T15:38:15.277Z,5.05
2023-04-05T15:40:44.008Z,2.55
2023-04-05T15:43:12.637Z,3.90
2023-04-05T15:45:43.273Z,3.03
2023-04-05T15:48:14.007Z,2.35
2023-04-05T15:50:42.563Z,3.38
2023-04-05T15:53:11.627Z,3.20
2023-04-05T15:55:40.244Z,3.30
2023-04-05T15:58:08.268Z,2.83
2023-04-05T16:00:36.869Z,2.50
2023-04-05T16:03:06.474Z,3.40
2023-04-05T16:05:35.098Z,3.50
2023-04-05T16:08:03.172Z,2.90
2023-04-05T16:10:31.726Z,3.47
2023-04-05T16:12:59.854Z,3.08
2023-04-05T16:15:28.798Z,2.92
2023-04-05T16:17:58.886Z,3.15
2023-04-05T16:20:28.545Z,3.08
2023-04-05T16:22:57.433Z,3.22
2023-04-05T16:25:25.532Z,2.97
2023-04-05T16:27:57.317Z,2.75
2023-04-05T16:30:25.389Z,3.78
2023-04-05T16:32:54.484Z,3.50
2023-04-05T16:35:22.562Z,3.60
2023-04-05T16:37:52.816Z,3.10
2023-04-05T16:40:21.040Z,4.60
2023-04-05T16:42:49.626Z,3.38
2023-04-05T16:45:17.870Z,3.45
2023-04-05T16:47:46.111Z,3.10
2023-04-05T16:50:14.718Z,2.63
2023-04-05T16:52:43.258Z,2.95
2023-04-05T16:55:12.907Z,4.88
2023-04-05T16:57:41.545Z,3.15
2023-04-05T17:00:11.168Z,3.85
2023-04-05T17:02:39.300Z,6.03
2023-04-05T17:05:08.746Z,5.55
2023-04-05T17:07:36.837Z,5.00
2023-04-05T17:10:05.647Z,3.47
2023-04-05T17:12:37.899Z,3.20
2023-04-05T17:15:06.630Z,3.25
2023-04-05T17:17:34.776Z,2.53
2023-04-05T17:20:04.029Z,3.10
2023-04-05T17:22:32.473Z,4.55
2023-04-05T17:25:03.023Z,3.40
2023-04-05T17:27:31.046Z,3.42
2023-04-05T17:30:01.260Z,2.80
2023-04-05T17:32:29.497Z,2.58
2023-04-05T17:34:57.676Z,3.38
2023-04-05T17:37:25.726Z,3.03
2023-04-05T17:39:53.802Z,2.70
2023-04-05T17:42:22.493Z,3.25
2023-04-05T17:44:51.346Z,3.07
2023-04-05T17:47:20.965Z,3.15
2023-04-05T17:49:49.061Z,3.50
2023-04-05T17:52:17.745Z,3.13
2023-04-05T17:54:47.403Z,2.90
2023-04-05T17:57:16.060Z,2.80
2023-04-05T17:59:44.584Z,3.58
2023-04-05T18:02:13.333Z,3.07
2023-04-05T18:04:43.576Z,5.38
2023-04-05T18:07:11.779Z,2.92
2023-04-05T18:09:42.212Z,2.85
2023-04-05T18:12:10.622Z,4.35
2023-04-05T18:14:39.251Z,3.07
2023-04-05T18:17:07.598Z,3.85
2023-04-05T18:19:35.804Z,3.17
2023-04-05T18:22:05.471Z,3.65
2023-04-05T18:24:34.018Z,3.10
2023-04-05T18:27:02.591Z,3.13
2023-04-05T18:29:32.969Z,3.87
2023-04-05T18:32:01.672Z,3.90
2023-04-05T18:34:29.759Z,3.75
2023-04-05T18:36:58.382Z,3.50
2023-04-05T18:39:28.004Z,3.53
2023-04-05T18:41:56.813Z,5.18
2023-04-05T18:44:24.925Z,3.87
2023-04-05T18:46:54.181Z,3.73
2023-04-05T18:49:23.045Z,3.75
2023-04-05T18:51:51.129Z,3.37
2023-04-05T18:54:19.375Z,3.92
2023-04-05T18:56:49.524Z,3.87
2023-04-05T18:59:18.749Z,3.70
2023-04-05T19:01:47.109Z,3.90
2023-04-05T19:04:16.775Z,3.42
2023-04-05T19:06:45.319Z,4.00
2023-04-05T19:09:13.908Z,3.40
2023-04-05T19:11:41.994Z,3.17
2023-04-05T19:14:11.418Z,3.70
2023-04-05T19:16:40.978Z,4.07
2023-04-05T19:19:09.385Z,3.60
2023-04-05T19:21:38.102Z,3.90
2023-04-05T19:24:09.319Z,2.87
2023-04-05T19:26:38.119Z,3.33
2023-04-05T19:29:06.645Z,3.93
2023-04-05T19:31:37.013Z,3.43
2023-04-05T19:34:08.180Z,3.50
2023-04-05T19:36:36.794Z,3.93
2023-04-05T19:39:05.864Z,3.47
2023-04-05T19:41:34.435Z,3.20
2023-04-05T19:44:02.755Z,3.40
2023-04-05T19:46:31.526Z,5.20
2023-04-05T19:49:09.761Z,4.00
2023-04-05T19:51:38.496Z,7.63
2023-04-05T19:54:11.928Z,4.80
2023-04-05T19:56:42.192Z,5.27
2023-04-05T19:59:29.906Z,6.13
2023-04-05T20:02:00.497Z,7.57
2023-04-05T20:04:34.431Z,8.43
2023-04-05T20:07:05.420Z,7.63
2023-04-05T20:09:35.180Z,7.90
2023-04-05T20:12:05.711Z,8.03
2023-04-05T20:14:42.431Z,7.07
2023-04-05T20:17:12.765Z,6.85
2023-04-05T20:19:55.947Z,7.77
2023-04-05T20:22:24.515Z,6.72
2023-04-05T20:24:53.308Z,7.10
2023-04-05T20:27:21.424Z,5.13
2023-04-05T20:29:50.110Z,5.07
2023-04-05T20:32:18.544Z,4.27
2023-04-05T20:34:48.786Z,5.67
2023-04-05T20:37:16.895Z,5.83
2023-04-05T20:39:45.488Z,4.75
2023-04-05T20:42:14.074Z,5.40
2023-04-05T20:44:42.890Z,6.07
2023-04-05T20:47:11.369Z,5.27
2023-04-05T20:49:39.427Z,5.93
2023-04-05T20:52:11.076Z,4.57
2023-04-05T20:54:39.264Z,7.33
2023-04-05T20:57:07.350Z,5.30
2023-04-05T20:59:35.456Z,5.93
2023-04-05T21:02:03.656Z,6.03
2023-04-05T21:04:31.776Z,5.87
2023-04-05T21:06:59.826Z,5.83
2023-04-05T21:09:29.325Z,5.10
2023-04-05T21:11:57.569Z,5.37
2023-04-05T21:14:26.570Z,5.53
2023-04-05T21:16:55.294Z,5.73
2023-04-05T21:19:23.500Z,4.80
2023-04-05T21:21:51.577Z,6.70
2023-04-05T21:24:19.614Z,5.83
2023-04-05T21:26:49.524Z,9.37
2023-04-05T21:29:17.579Z,5.83
2023-04-05T21:31:46.236Z,4.47
2023-04-05T21:34:14.269Z,4.57
2023-04-05T21:36:42.872Z,4.53
2023-04-05T21:39:11.344Z,6.40
2023-04-05T21:41:40.034Z,5.53
2023-04-05T21:44:09.471Z,5.57
2023-04-05T21:46:38.060Z,6.60
2023-04-05T21:49:06.877Z,7.30
2023-04-05T21:51:35.193Z,9.60
2023-04-05T21:54:03.710Z,7.87
2023-04-05T21:56:31.773Z,6.73
2023-04-05T21:58:59.903Z,6.37
2023-04-05T22:01:29.394Z,6.77
2023-04-05T22:03:57.938Z,8.93
2023-04-05T22:06:26.479Z,6.97
2023-04-05T22:08:54.575Z,6.37
2023-04-05T22:11:24.249Z,6.40
2023-04-05T22:13:52.590Z,6.47
2023-04-05T22:16:21.298Z,5.57
2023-04-05T22:18:50.737Z,6.67
2023-04-05T22:21:19.349Z,6.00
2023-04-05T22:23:47.642Z,5.13
2023-04-05T22:26:16.176Z,5.50
2023-04-05T22:28:44.221Z,7.10
2023-04-05T22:31:12.742Z,6.30
2023-04-05T22:33:41.065Z,7.73
2023-04-05T22:36:11.383Z,5.53
2023-04-05T22:38:39.995Z,5.60
2023-04-05T22:41:08.583Z,5.70
2023-04-05T22:43:37.221Z,6.23
2023-04-05T22:46:06.173Z,5.20
2023-04-05T22:48:34.290Z,5.50
2023-04-05T22:51:02.939Z,5.40
2023-04-05T22:53:32.387Z,6.23
2023-04-05T22:56:00.927Z,7.03
2023-04-05T22:58:29.739Z,6.27
2023-04-05T23:00:58.266Z,5.87
2023-04-05T23:03:27.145Z,5.67
2023-04-05T23:05:55.344Z,6.27
2023-04-05T23:08:23.905Z,6.00
2023-04-05T23:10:53.353Z,6.00
2023-04-05T23:13:22.311Z,5.80
2023-04-05T23:15:50.899Z,6.33
2023-04-05T23:18:23.092Z,5.80
2023-04-05T23:20:51.709Z,7.83
2023-04-05T23:23:20.244Z,5.83
2023-04-05T23:25:51.669Z,6.43
2023-04-05T23:28:21.060Z,7.33
2023-04-05T23:30:50.026Z,7.27
2023-04-05T23:33:18.621Z,7.70
2023-04-05T23:35:46.731Z,6.63
2023-04-05T23:38:15.278Z,9.20
2023-04-05T23:40:43.335Z,8.93
2023-04-05T23:43:13.124Z,6.73
2023-04-05T23:45:42.582Z,6.17
2023-04-05T23:48:11.132Z,6.77
2023-04-05T23:50:39.324Z,6.07
2023-04-05T23:53:08.231Z,6.33
2023-04-05T23:55:40.781Z,7.50
2023-04-05T23:58:09.703Z,5.97
